Share

Belgrade Nikola Tesla, Serbia

Belgrade (LYBE) Elev 325 ft | 44.82 °N, 20.29 °E | Change Station

Current weather conditions updated 32 minutes ago

Light Rain
Light Rain
50 °F
Feels Like 50 °F
N
7
Wind Variable Wind from NNE
Sunrise 5:51 AM
Sunset 7:26 PM
Moon Waning Gibbous

Today is forecast to be nearly the same temperature as yesterday. Rain.

Pressure 29.92 in
Visibility 6.2 miles
Clouds Scattered Clouds 1200 ft
Scattered Clouds 3300 ft
Dew Point 46 °F
Humidity 87%
Rainfall 0.00 in
Snow Depth Not available.
UV 5 out of 16
Pollen Not available.
Air Quality Not available.
Flu Activity Not available.
METAR LYBE 171300Z 02006KT 9999 -RA SCT012 SCT033 10/08 Q1013 NOSIG

More Conditions Fewer Conditions

Pressure 29.92 in
Visibility 6.2 miles
Clouds Scattered Clouds 1200 ft
Scattered Clouds 3300 ft
Dew Point 46 °F
Humidity 87%
Rainfall 0.00 in
Snow Depth Not available.
UV 5 out of 16
Pollen Not available.
Air Quality Not available.
Flu Activity Not available.
METAR LYBE 171300Z 02006KT 9999 -RA SCT012 SCT033 10/08 Q1013 NOSIG

More Conditions Fewer Conditions

10-Day Forecast

Almanac

Astronomy

Apr. 17, 2014 Rise Set
Actual Time 5:51 AM CEST 7:26 PM CEST
Civil Twilight 5:20 AM CEST 7:57 PM CEST
Nautical Twilight 4:43 AM CEST 8:34 PM CEST
Astronomical Twilight 4:03 AM CEST 9:14 PM CEST
Moon 9:58 PM CEST 7:05 AM CEST
Length of Visible Light 14h 36m
Length of Day
13h 34m
Tomorrow will be 2m 58s longer.
Waning Gibbous, 94% of the Moon is Illuminated
Today
Waning Gibbous
Apr 22
Last Quarter
Apr 29
New
May 6
First Quarter
May 14
Full

Community

  • New Day
    New Day
  • Lake Michigan Sunrise
    Lake Michigan Sunrise
  • sunset from izmir, narlıdere
    sunset from izmir, narlıdere
  • oregon cherry
    oregon cherry
  • Sunset over the Bay
    Sunset over the Bay

WunderPhotos

Upload Photos

1,701,963 photos uploaded!

Nearby

Snow Depth

Not available.

Coastal Water Temperatures

Place Temperature
No Stations Reporting

Earthquake Activity

City Distance Mag. Time & Date
No recent earthquake activity has been reported nearby.
Minimum magnitude displayed is 2.5.

Nearby Weather Stations

Station Location Temp. Windchill Dew Point Humidity Wind Precip. Elev Updated Type
Duboko vinogradi, Bari%u010D 49.3 °F 49 °F 46 °F 89% ENE  at  1.0 mph 0.00 in / hr 387 ft 3:30 PM CEST Normal
Beograd-Karaburma 49.3 °F 47 °F 48 °F 94% NNE  at  5.0 mph 0.00 in / hr 322 ft 3:31 PM CEST Normal
Misa, Pancevo 50.7 °F - 50 °F 99% North  at  3.1 mph 0.00 in / hr 249 ft 3:32 PM CEST Rapid Fire
Zaklopaca, Grocka 47.9 °F 48 °F 46 °F 95% North  at  0.0 mph 0.00 in / hr 361 ft 3:30 PM CEST Normal
Babe, vikend naselje, Sopot 46.9 °F 47 °F 47 °F 99% North  at  - - / hr 1027 ft 3:25 PM CEST Normal

Show More Stations Show Fewer Stations

What do you think?

We're not finished. Please let us know what you like, what you don't like, and what you are still missing.